createdAt,value
2018-01-28T00:02:06.400Z,59.58
2018-01-28T00:04:34.227Z,69.57
2018-01-28T00:07:05.880Z,63.38
2018-01-28T00:09:43.960Z,65.78
2018-01-28T00:12:11.621Z,58.65
2018-01-28T00:14:39.783Z,61.47
2018-01-28T00:17:08.867Z,69.87
2018-01-28T00:19:37.396Z,76.87
2018-01-28T00:22:06.192Z,82.37
2018-01-28T00:24:35.944Z,81.93
2018-01-28T00:27:04.141Z,79.45
2018-01-28T00:29:32.163Z,76.70
2018-01-28T00:31:59.747Z,66.85
2018-01-28T00:34:27.290Z,68.30
2018-01-28T00:36:55.158Z,72.72
2018-01-28T00:39:22.700Z,83.53
2018-01-28T00:41:50.252Z,82.97
2018-01-28T00:44:38.129Z,67.95
2018-01-28T00:47:09.583Z,76.75
2018-01-28T00:49:41.236Z,71.45
2018-01-28T00:52:10.124Z,76.85
2018-01-28T00:54:37.709Z,81.35
2018-01-28T00:57:05.266Z,63.00
2018-01-28T00:59:36.072Z,66.40
2018-01-28T01:02:04.049Z,62.67
2018-01-28T01:04:32.801Z,64.82
2018-01-28T01:07:00.342Z,75.65
2018-01-28T01:09:27.915Z,81.37
2018-01-28T01:11:55.603Z,93.55
2018-01-28T01:14:23.155Z,87.90
2018-01-28T01:16:50.728Z,88.40
2018-01-28T01:19:18.313Z,88.95
2018-01-28T01:21:45.877Z,88.78
2018-01-28T01:24:13.716Z,81.40
2018-01-28T01:26:41.265Z,84.85
2018-01-28T01:29:08.817Z,81.07
2018-01-28T01:31:36.441Z,74.40
2018-01-28T01:34:04.042Z,79.32
2018-01-28T01:36:31.710Z,81.07
2018-01-28T01:38:59.273Z,77.57
2018-01-28T01:41:26.834Z,66.70
2018-01-28T01:43:54.429Z,74.45
2018-01-28T01:46:21.992Z,66.80
2018-01-28T01:48:49.652Z,69.00
2018-01-28T01:51:17.291Z,68.03
2018-01-28T01:53:44.848Z,72.18
2018-01-28T01:56:12.400Z,70.35
2018-01-28T01:58:39.959Z,70.57
2018-01-28T02:01:07.527Z,64.50
2018-01-28T02:03:39.964Z,68.12
2018-01-28T02:06:07.721Z,65.15
2018-01-28T02:08:35.430Z,54.08
2018-01-28T02:11:02.981Z,60.55
2018-01-28T02:13:30.530Z,58.87
2018-01-28T02:15:58.061Z,65.72
2018-01-28T02:18:25.725Z,66.95
2018-01-28T02:20:53.313Z,59.90
2018-01-28T02:23:20.876Z,61.30
2018-01-28T02:25:48.786Z,58.42
2018-01-28T02:28:23.756Z,58.10
2018-01-28T02:30:53.518Z,52.67
2018-01-28T02:33:35.208Z,50.17
2018-01-28T02:36:10.908Z,46.55
2018-01-28T02:38:58.352Z,51.40
2018-01-28T02:41:31.666Z,48.22
2018-01-28T02:46:56.292Z,44.85
2018-01-28T02:49:33.688Z,48.83
2018-01-28T02:52:15.816Z,50.08
2018-01-28T02:54:51.277Z,39.85
2018-01-28T02:57:26.957Z,44.10
2018-01-28T03:05:31.414Z,51.95
2018-01-28T03:08:04.771Z,52.70
2018-01-28T03:10:35.224Z,51.97
2018-01-28T03:13:16.940Z,49.05
2018-01-28T03:15:51.791Z,46.45
2018-01-28T03:18:41.927Z,51.20
2018-01-28T03:21:27.627Z,49.00
2018-01-28T03:24:04.661Z,44.45
2018-01-28T03:26:39.358Z,36.70
2018-01-28T03:29:22.220Z,39.55
2018-01-28T03:31:56.403Z,35.45
2018-01-28T03:34:24.749Z,36.75
2018-01-28T03:36:52.320Z,36.28
2018-01-28T03:39:20.014Z,35.45
2018-01-28T03:41:47.589Z,36.42
2018-01-28T03:44:15.144Z,37.88
2018-01-28T03:46:42.872Z,36.10
2018-01-28T03:49:10.418Z,39.20
2018-01-28T03:51:37.972Z,40.95
2018-01-28T03:54:05.692Z,40.63
2018-01-28T03:56:33.276Z,40.33
2018-01-28T03:59:00.859Z,32.50
2018-01-28T04:01:28.545Z,34.85
2018-01-28T04:03:56.073Z,35.65
2018-01-28T04:06:23.632Z,35.60
2018-01-28T04:08:51.212Z,36.08
2018-01-28T04:11:18.784Z,31.30
2018-01-28T04:13:46.478Z,33.67
2018-01-28T04:16:14.058Z,32.33
2018-01-28T04:18:41.601Z,33.75
2018-01-28T04:21:09.187Z,26.75
2018-01-28T04:23:36.750Z,31.52
2018-01-28T04:26:04.426Z,33.83
2018-01-28T04:28:31.957Z,30.88
2018-01-28T04:30:59.619Z,36.17
2018-01-28T04:33:27.157Z,32.42
2018-01-28T04:35:54.700Z,30.40
2018-01-28T04:38:22.240Z,33.42
2018-01-28T04:40:49.769Z,35.50
2018-01-28T04:43:17.437Z,35.75
2018-01-28T04:45:44.984Z,34.80
2018-01-28T04:48:12.531Z,21.17
2018-01-28T04:50:40.118Z,40.17
2018-01-28T04:53:07.633Z,35.13
2018-01-28T04:55:35.298Z,33.95
2018-01-28T04:58:02.874Z,35.58
2018-01-28T05:00:30.553Z,35.55
2018-01-28T05:02:58.139Z,34.65
2018-01-28T05:05:25.696Z,32.95
2018-01-28T05:07:53.298Z,36.50
2018-01-28T05:10:20.886Z,36.83
2018-01-28T05:12:48.580Z,31.95
2018-01-28T05:15:16.097Z,31.05
2018-01-28T05:17:43.605Z,29.87
2018-01-28T05:20:11.160Z,27.00
2018-01-28T05:22:38.725Z,32.40
2018-01-28T05:25:06.384Z,29.33
2018-01-28T05:27:33.968Z,26.70
2018-01-28T05:30:01.556Z,36.97
2018-01-28T05:32:29.132Z,32.78
2018-01-28T05:34:56.664Z,29.02
2018-01-28T05:37:24.310Z,32.67
2018-01-28T05:39:51.857Z,30.62
2018-01-28T05:42:19.447Z,31.55
2018-01-28T05:44:47.051Z,28.12
2018-01-28T05:47:14.608Z,15.93
2018-01-28T05:49:42.308Z,35.10
2018-01-28T05:52:09.838Z,33.85
2018-01-28T05:54:37.403Z,35.08
2018-01-28T05:57:04.978Z,31.40
2018-01-28T05:59:32.556Z,30.60
2018-01-28T06:02:00.228Z,35.03
2018-01-28T06:04:27.777Z,37.53
2018-01-28T06:06:55.329Z,49.88
2018-01-28T06:09:22.933Z,55.17
2018-01-28T06:11:50.485Z,50.08
2018-01-28T06:14:18.158Z,43.40
2018-01-28T06:16:45.720Z,44.13
2018-01-28T06:19:14.295Z,51.42
2018-01-28T06:21:41.874Z,44.05
2018-01-28T06:24:09.478Z,36.50
2018-01-28T06:26:37.181Z,40.45
2018-01-28T06:29:04.775Z,42.92
2018-01-28T06:31:32.439Z,37.55
2018-01-28T06:33:59.998Z,37.60
2018-01-28T06:36:27.535Z,39.72
2018-01-28T06:38:55.094Z,39.95
2018-01-28T06:41:22.678Z,31.20
2018-01-28T06:43:50.338Z,35.60
2018-01-28T06:46:17.893Z,42.45
2018-01-28T06:48:45.458Z,42.10
2018-01-28T06:51:13.023Z,31.67
2018-01-28T06:53:40.579Z,13.55
2018-01-28T06:56:08.269Z,40.92
2018-01-28T06:58:35.810Z,61.63
2018-01-28T07:01:03.496Z,41.08
2018-01-28T07:03:31.048Z,49.75
2018-01-28T07:05:58.717Z,62.70
2018-01-28T07:08:26.328Z,65.55
2018-01-28T07:10:53.909Z,63.90
2018-01-28T07:13:21.568Z,59.28
2018-01-28T07:15:49.125Z,69.82
2018-01-28T07:18:16.710Z,64.07
2018-01-28T07:20:44.281Z,48.55
2018-01-28T07:23:11.833Z,52.53
2018-01-28T07:25:39.529Z,55.22
2018-01-28T07:28:07.109Z,57.47
2018-01-28T07:30:34.826Z,64.30
2018-01-28T07:33:02.389Z,65.43
2018-01-28T07:35:29.929Z,73.93
2018-01-28T07:37:57.489Z,63.13
2018-01-28T07:40:25.054Z,69.72
2018-01-28T07:42:52.764Z,62.62
2018-01-28T07:45:20.324Z,67.87
2018-01-28T07:47:47.914Z,67.68
2018-01-28T07:50:15.476Z,57.13
2018-01-28T07:52:43.102Z,49.28
2018-01-28T07:55:10.769Z,38.92
2018-01-28T07:57:38.313Z,62.73
2018-01-28T08:00:06.664Z,63.67
2018-01-28T08:02:35.325Z,40.63
2018-01-28T08:05:06.940Z,43.17
2018-01-28T08:07:35.335Z,45.97
2018-01-28T08:10:19.074Z,43.77
2018-01-28T08:12:50.157Z,53.17
2018-01-28T08:15:18.712Z,44.47
2018-01-28T08:17:46.340Z,45.17
2018-01-28T08:20:14.134Z,41.30
2018-01-28T08:22:41.955Z,47.50
2018-01-28T08:25:11.337Z,50.33
2018-01-28T08:27:54.713Z,50.23
2018-01-28T08:30:22.382Z,51.77
2018-01-28T08:32:49.999Z,48.60
2018-01-28T08:35:17.534Z,40.83
2018-01-28T08:37:45.228Z,54.53
2018-01-28T08:40:12.898Z,54.83
2018-01-28T08:42:40.594Z,61.63
2018-01-28T08:45:08.168Z,63.30
2018-01-28T08:47:35.705Z,57.80
2018-01-28T08:50:03.267Z,61.87
2018-01-28T08:52:30.826Z,62.90
2018-01-28T08:54:58.524Z,66.23
2018-01-28T08:57:26.156Z,64.13
2018-01-28T08:59:53.793Z,57.50
2018-01-28T09:02:21.324Z,58.30
2018-01-28T09:04:48.862Z,60.27
2018-01-28T09:07:16.571Z,62.27
2018-01-28T09:09:44.128Z,62.77
2018-01-28T09:12:11.701Z,61.27
2018-01-28T09:14:39.236Z,60.83
2018-01-28T09:17:06.777Z,64.70
2018-01-28T09:19:34.460Z,69.27
2018-01-28T09:22:02.027Z,71.33
2018-01-28T09:24:29.570Z,75.90
2018-01-28T09:26:57.113Z,78.90
2018-01-28T09:29:24.673Z,74.40
2018-01-28T09:31:53.122Z,64.13
2018-01-28T09:34:21.683Z,57.67
2018-01-28T09:36:52.227Z,60.60
2018-01-28T09:39:20.529Z,57.43
2018-01-28T09:41:50.872Z,54.30
2018-01-28T09:44:21.501Z,54.77
2018-01-28T09:46:50.997Z,52.63
2018-01-28T09:49:23.119Z,52.53
2018-01-28T09:51:51.538Z,50.13
2018-01-28T09:54:22.121Z,51.63
2018-01-28T09:56:50.624Z,48.90
2018-01-28T09:59:19.145Z,50.07
2018-01-28T10:01:46.852Z,54.83
2018-01-28T10:04:15.470Z,53.90
2018-01-28T10:06:42.982Z,56.33
2018-01-28T10:09:10.499Z,57.60
2018-01-28T10:11:38.104Z,59.90
2018-01-28T10:14:05.836Z,59.20
2018-01-28T10:16:33.356Z,62.63
2018-01-28T10:19:01.154Z,59.83
2018-01-28T10:21:28.731Z,50.93
2018-01-28T10:23:56.284Z,53.37
2018-01-28T10:26:23.955Z,58.37
2018-01-28T10:28:51.670Z,64.83
2018-01-28T10:31:19.392Z,63.60
2018-01-28T10:33:46.979Z,61.33
2018-01-28T10:36:14.493Z,62.87
2018-01-28T10:38:42.017Z,68.40
2018-01-28T10:41:09.562Z,68.50
2018-01-28T10:43:37.230Z,71.13
2018-01-28T10:46:04.763Z,71.17
2018-01-28T10:48:32.305Z,67.23
2018-01-28T10:50:59.868Z,68.37
2018-01-28T10:53:27.401Z,66.03
2018-01-28T10:55:55.041Z,75.20
2018-01-28T10:58:22.582Z,72.90
2018-01-28T11:00:50.276Z,74.87
2018-01-28T11:03:17.841Z,82.33
2018-01-28T11:05:45.402Z,77.57
2018-01-28T11:08:12.998Z,75.33
2018-01-28T11:10:40.520Z,70.60
2018-01-28T11:13:08.201Z,80.07
2018-01-28T11:15:35.756Z,79.10
2018-01-28T11:18:03.321Z,79.33
2018-01-28T11:20:31.082Z,72.23
2018-01-28T11:22:58.794Z,83.33
2018-01-28T11:25:26.497Z,85.63
2018-01-28T11:27:54.056Z,80.93
2018-01-28T11:30:21.774Z,84.70
2018-01-28T11:32:49.377Z,90.33
2018-01-28T11:35:17.444Z,89.57
2018-01-28T11:37:45.729Z,90.30
2018-01-28T11:40:13.546Z,80.30
2018-01-28T11:42:41.458Z,70.87
2018-01-28T11:45:09.155Z,80.50
2018-01-28T11:47:37.592Z,79.63
2018-01-28T11:50:05.113Z,74.23
2018-01-28T11:52:32.677Z,80.00
2018-01-28T11:55:00.632Z,81.83
2018-01-28T11:57:28.381Z,82.70
2018-01-28T11:59:56.794Z,82.80
2018-01-28T12:02:24.595Z,83.30
2018-01-28T12:04:52.145Z,76.67
2018-01-28T12:07:19.896Z,79.50
2018-01-28T12:09:47.433Z,78.93
2018-01-28T12:12:15.413Z,75.37
2018-01-28T12:14:42.942Z,70.17
2018-01-28T12:17:10.477Z,73.97
2018-01-28T12:19:38.357Z,79.53
2018-01-28T12:22:05.943Z,74.90
2018-01-28T12:24:33.492Z,81.90
2018-01-28T12:27:01.062Z,83.43
2018-01-28T12:29:28.730Z,81.17
2018-01-28T12:31:56.525Z,79.47
2018-01-28T12:34:24.165Z,81.30
2018-01-28T12:36:51.771Z,89.73
2018-01-28T12:39:19.318Z,83.73
2018-01-28T12:41:47.282Z,89.70
2018-01-28T12:44:15.912Z,86.10
2018-01-28T12:46:43.480Z,79.87
2018-01-28T12:49:16.744Z,69.73
2018-01-28T12:51:44.456Z,70.20
2018-01-28T12:54:12.291Z,78.43
2018-01-28T12:56:39.893Z,68.10
2018-01-28T12:59:07.516Z,76.07
2018-01-28T13:01:35.216Z,75.20
2018-01-28T13:04:03.153Z,65.83
2018-01-28T13:06:30.662Z,68.07
2018-01-28T13:08:58.222Z,67.20
2018-01-28T13:11:25.756Z,65.57
2018-01-28T13:13:53.436Z,71.20
2018-01-28T13:16:20.964Z,71.73
2018-01-28T13:18:48.599Z,57.50
2018-01-28T13:21:16.150Z,61.33
2018-01-28T13:23:43.688Z,64.87
2018-01-28T13:26:11.383Z,65.23
2018-01-28T13:28:38.899Z,64.20
2018-01-28T13:31:06.549Z,66.27
2018-01-28T13:33:35.344Z,64.67
2018-01-28T13:36:03.039Z,68.67
2018-01-28T13:38:30.896Z,67.20
2018-01-28T13:40:58.619Z,67.33
2018-01-28T13:43:26.420Z,68.77
2018-01-28T13:45:53.971Z,69.77
2018-01-28T13:48:21.551Z,57.43
2018-01-28T13:50:49.132Z,57.70
2018-01-28T13:53:16.921Z,56.87
2018-01-28T13:55:44.635Z,55.30
2018-01-28T13:58:12.310Z,54.40
2018-01-28T14:00:39.999Z,64.47
2018-01-28T14:03:07.573Z,75.00
2018-01-28T14:05:35.141Z,66.20
2018-01-28T14:08:02.722Z,60.57
2018-01-28T14:10:30.264Z,53.57
2018-01-28T14:12:57.914Z,53.93
2018-01-28T14:15:25.437Z,49.17
2018-01-28T14:17:52.949Z,48.13
2018-01-28T14:20:20.486Z,46.27
2018-01-28T14:22:48.029Z,45.50
2018-01-28T14:25:15.580Z,46.60
2018-01-28T14:27:43.109Z,45.33
2018-01-28T14:30:10.770Z,41.40
2018-01-28T14:32:38.366Z,43.70
2018-01-28T14:35:05.941Z,40.03
2018-01-28T14:37:33.595Z,37.07
2018-01-28T14:40:01.240Z,35.53
2018-01-28T14:42:29.589Z,34.63
2018-01-28T14:44:57.112Z,34.17
2018-01-28T14:47:25.676Z,34.17
2018-01-28T14:49:53.733Z,34.77
2018-01-28T14:52:21.393Z,31.97
2018-01-28T14:54:49.664Z,33.63
2018-01-28T14:57:17.224Z,33.90
2018-01-28T14:59:44.912Z,35.97
2018-01-28T15:02:12.470Z,35.60
2018-01-28T15:04:40.004Z,37.57
2018-01-28T15:07:07.667Z,31.37
2018-01-28T15:09:36.469Z,32.53
2018-01-28T15:12:05.180Z,34.40
2018-01-28T15:14:32.860Z,32.60
2018-01-28T15:17:00.448Z,31.57
2018-01-28T15:19:28.330Z,33.20
2018-01-28T15:21:55.903Z,32.90
2018-01-28T15:24:23.536Z,32.13
2018-01-28T15:26:51.398Z,34.37
2018-01-28T15:29:18.967Z,36.03
2018-01-28T15:31:46.520Z,32.80
2018-01-28T15:34:14.067Z,33.77
2018-01-28T15:36:41.770Z,36.17
2018-01-28T15:39:09.305Z,37.63
2018-01-28T15:41:36.826Z,34.50
2018-01-28T15:44:04.366Z,33.70
2018-01-28T15:46:31.892Z,35.40
2018-01-28T15:48:59.584Z,35.43
2018-01-28T15:51:27.118Z,35.00
2018-01-28T15:53:54.669Z,34.20
2018-01-28T15:56:22.202Z,37.53
2018-01-28T15:58:49.775Z,33.80
2018-01-28T16:01:17.726Z,37.93
2018-01-28T16:03:45.416Z,42.50
2018-01-28T16:06:13.133Z,44.03
2018-01-28T16:08:40.661Z,46.47
2018-01-28T16:11:08.243Z,41.40
2018-01-28T16:13:35.973Z,42.77
2018-01-28T16:16:03.573Z,45.30
2018-01-28T16:18:31.097Z,41.50
2018-01-28T16:20:58.750Z,43.30
2018-01-28T16:23:26.386Z,42.20
2018-01-28T16:25:54.663Z,44.20
2018-01-28T16:28:22.333Z,42.07
2018-01-28T16:30:50.081Z,31.47
2018-01-28T16:33:17.843Z,32.03
2018-01-28T16:35:45.430Z,29.83
2018-01-28T16:38:13.133Z,23.27
2018-01-28T16:40:40.781Z,18.47
2018-01-28T16:43:10.067Z,19.73
2018-01-28T16:45:37.630Z,16.80
2018-01-28T16:48:05.186Z,15.80
2018-01-28T16:50:33.017Z,10.70
2018-01-28T16:53:00.670Z,12.23
2018-01-28T16:55:29.960Z,13.17
2018-01-28T16:57:57.941Z,11.57
2018-01-28T17:00:26.148Z,13.13
2018-01-28T17:02:53.798Z,11.63
2018-01-28T17:05:21.368Z,10.63
2018-01-28T17:07:48.949Z,11.67
2018-01-28T17:10:16.541Z,10.03
2018-01-28T17:12:44.236Z,8.40
2018-01-28T17:15:12.168Z,9.97
2018-01-28T17:17:39.722Z,8.83
2018-01-28T17:20:07.277Z,10.83
2018-01-28T17:22:34.809Z,10.00
2018-01-28T17:25:02.532Z,11.53
2018-01-28T17:27:30.057Z,11.93
2018-01-28T17:29:57.606Z,10.60
2018-01-28T17:32:25.141Z,8.80
2018-01-28T17:34:52.693Z,11.93
2018-01-28T17:37:20.368Z,10.10
2018-01-28T17:39:47.889Z,11.77
2018-01-28T17:42:15.418Z,11.07
2018-01-28T17:44:42.984Z,11.60
2018-01-28T17:47:10.490Z,10.77
2018-01-28T17:49:38.164Z,11.37
2018-01-28T17:52:05.713Z,11.27
2018-01-28T17:54:33.239Z,11.10
2018-01-28T17:57:00.763Z,11.13
2018-01-28T17:59:28.895Z,10.40
2018-01-28T18:01:56.409Z,10.77
2018-01-28T18:04:23.952Z,10.57
2018-01-28T18:06:51.605Z,8.60
2018-01-28T18:09:20.090Z,10.57
2018-01-28T18:11:47.628Z,12.87
2018-01-28T18:14:15.146Z,10.77
2018-01-28T18:16:42.670Z,9.50
2018-01-28T18:19:10.342Z,8.83
2018-01-28T18:21:37.951Z,10.73
2018-01-28T18:24:05.473Z,11.23
2018-01-28T18:26:32.994Z,9.23
2018-01-28T18:29:00.562Z,9.83
2018-01-28T18:31:28.085Z,10.10
2018-01-28T18:33:55.612Z,8.53
2018-01-28T18:36:24.153Z,8.60
2018-01-28T18:38:51.693Z,6.50
2018-01-28T18:41:19.608Z,8.30
2018-01-28T18:43:47.125Z,8.70
2018-01-28T18:46:14.648Z,8.67
2018-01-28T18:48:42.403Z,8.23
2018-01-28T18:51:09.913Z,6.73
2018-01-28T18:53:37.498Z,8.13
2018-01-28T18:56:05.029Z,7.43
2018-01-28T18:58:34.273Z,7.57
2018-01-28T19:01:02.026Z,7.03
2018-01-28T19:03:29.765Z,6.87
2018-01-28T19:06:00.904Z,7.63
2018-01-28T19:08:28.848Z,8.53
2018-01-28T19:10:57.411Z,8.43
2018-01-28T19:13:25.284Z,10.17
2018-01-28T19:15:53.756Z,8.47
2018-01-28T19:18:21.267Z,9.53
2018-01-28T19:20:48.782Z,10.07
2018-01-28T19:23:16.317Z,8.13
2018-01-28T19:25:43.993Z,9.33
2018-01-28T19:28:11.980Z,10.60
2018-01-28T19:30:39.668Z,10.30
2018-01-28T19:33:07.209Z,9.60
2018-01-28T19:35:35.647Z,10.10
2018-01-28T19:38:04.193Z,11.00
2018-01-28T19:40:31.705Z,9.87
2018-01-28T19:42:59.599Z,10.53
2018-01-28T19:45:27.264Z,11.60
2018-01-28T19:47:54.782Z,8.80
2018-01-28T19:50:22.294Z,10.17
2018-01-28T19:52:49.809Z,10.67
2018-01-28T19:55:17.530Z,8.87
2018-01-28T19:57:45.674Z,10.10
2018-01-28T20:00:13.354Z,10.73
2018-01-28T20:02:40.883Z,11.13
2018-01-28T20:05:08.410Z,9.93
2018-01-28T20:07:35.943Z,8.57
2018-01-28T20:10:03.607Z,9.33
2018-01-28T20:12:32.134Z,9.87
2018-01-28T20:15:00.516Z,9.17
2018-01-28T20:17:28.045Z,10.57
2018-01-28T20:19:55.557Z,11.87
2018-01-28T20:22:23.077Z,9.43
2018-01-28T20:24:54.765Z,9.70
2018-01-28T20:27:22.330Z,10.20
2018-01-28T20:29:49.861Z,10.17
2018-01-28T20:32:17.378Z,9.97
2018-01-28T20:34:44.910Z,10.77
2018-01-28T20:37:12.567Z,8.67
2018-01-28T20:39:40.092Z,9.47
2018-01-28T20:42:07.588Z,9.00
2018-01-28T20:44:36.191Z,11.03
2018-01-28T20:47:03.837Z,11.80
2018-01-28T20:49:31.504Z,12.37
2018-01-28T20:51:59.031Z,11.47
2018-01-28T20:54:26.654Z,11.63
2018-01-28T20:56:54.192Z,12.13
2018-01-28T20:59:22.245Z,13.27
2018-01-28T21:01:49.761Z,11.23
2018-01-28T21:04:17.305Z,11.27
2018-01-28T21:06:44.972Z,10.53
2018-01-28T21:09:12.540Z,9.07
2018-01-28T21:11:40.033Z,8.77
2018-01-28T21:14:07.844Z,10.13
2018-01-28T21:16:35.364Z,7.90
2018-01-28T21:19:03.012Z,7.70
2018-01-28T21:21:30.550Z,8.53
2018-01-28T21:23:58.137Z,7.80
2018-01-28T21:26:25.653Z,6.53
2018-01-28T21:28:53.167Z,7.97
2018-01-28T21:31:21.522Z,6.93
2018-01-28T21:33:49.042Z,8.20
2018-01-28T21:36:16.686Z,7.53
2018-01-28T21:38:44.225Z,9.87
2018-01-28T21:41:11.767Z,8.60
2018-01-28T21:43:39.278Z,17.40
2018-01-28T21:46:06.785Z,26.10
2018-01-28T21:48:34.429Z,17.97
2018-01-28T21:51:01.965Z,22.90
2018-01-28T21:53:29.485Z,22.50
2018-01-28T21:55:57.004Z,21.83
2018-01-28T21:58:24.536Z,31.00
2018-01-28T22:00:52.228Z,45.70
2018-01-28T22:03:19.768Z,49.67
2018-01-28T22:05:47.284Z,59.20
2018-01-28T22:08:14.827Z,64.50
2018-01-28T22:10:42.364Z,59.97
2018-01-28T22:13:10.114Z,49.67
2018-01-28T22:15:37.616Z,44.30
2018-01-28T22:18:05.133Z,44.23
2018-01-28T22:20:32.665Z,33.23
2018-01-28T22:23:00.186Z,40.30
2018-01-28T22:25:27.846Z,27.20
2018-01-28T22:27:55.380Z,48.07
2018-01-28T22:30:23.848Z,47.07
2018-01-28T22:32:51.371Z,33.47
2018-01-28T22:35:18.880Z,29.20
2018-01-28T22:37:46.441Z,28.17
2018-01-28T22:40:13.986Z,37.70
2018-01-28T22:42:41.693Z,28.67
2018-01-28T22:45:09.228Z,33.53
2018-01-28T22:47:36.748Z,34.47
2018-01-28T22:50:04.270Z,34.80
2018-01-28T22:52:31.785Z,38.20
2018-01-28T22:54:59.438Z,27.27
2018-01-28T22:57:26.940Z,21.53
2018-01-28T22:59:54.472Z,19.83
2018-01-28T23:02:22.004Z,19.53
2018-01-28T23:04:49.538Z,22.10
2018-01-28T23:07:17.213Z,20.13
2018-01-28T23:09:44.732Z,20.13
2018-01-28T23:12:12.266Z,19.87
2018-01-28T23:14:39.785Z,18.83
2018-01-28T23:17:07.307Z,19.13
2018-01-28T23:19:34.960Z,19.37
2018-01-28T23:22:02.497Z,19.00
2018-01-28T23:24:30.060Z,17.97
2018-01-28T23:26:57.584Z,17.87
2018-01-28T23:29:25.109Z,19.47
2018-01-28T23:31:52.701Z,19.53
2018-01-28T23:34:20.215Z,18.47
2018-01-28T23:36:47.948Z,19.93
2018-01-28T23:39:15.568Z,18.90
2018-01-28T23:41:43.421Z,19.73
2018-01-28T23:44:10.941Z,17.33
2018-01-28T23:46:38.444Z,18.60
2018-01-28T23:49:06.127Z,18.67
2018-01-28T23:51:33.658Z,18.93
2018-01-28T23:54:01.192Z,20.50
2018-01-28T23:56:28.716Z,20.27
2018-01-28T23:58:56.233Z,16.40
